• Join FlightAware (Why Join?)
  • Login
  • US Flag 
09:34AM EDT


 

Airport Tracker/Info


-or-


 

Live Flight TrackerFlight Track Log ✈ N337JB ✈ 29-Apr-2012 ✈ KDCA - KBOS

Flight Track Log - Related Links

Times and Time Zones

All times are in EDT time to prevent confusion due to time zone crossing. See the N337JB flight status page for this flight to view local times or setup timezone preferences in your user account.

Time Position Orientation Groundspeed Altitude Reporting Facility
EDT Latitude Longitude Course Direction KTS MPH feet Rate Location/Type
03:59PM 38.8559 -77.0040 308° West  Level FlightAware Approximate
04:00PM 38.9000 -76.8807 275° West  Level FlightAware Approximate
04:01PM 38.9144 -77.1017 325° Northwest 209 241 2,800  Level Washington Center
04:02PM 38.9658 -77.1481 39° Northeast 214 246 4,900 2,400 Climbing Washington Center
04:03PM 39.0208 -77.0906 57° Northeast 190 219 7,700 2,640 Climbing Washington Center
04:04PM 39.0656 -77.0006 70° East 228 262 10,200 2,520 Climbing Washington Center
04:05PM 39.0961 -76.8942 84° East 271 312 12,800 2,160 Climbing Washington Center
04:06PM 39.1056 -76.7686 84° East 304 350 14,600 1,860 Climbing Washington Center
04:07PM 39.1175 -76.6217 83° East 359 413 16,600 1,980 Climbing Washington Center
04:08PM 39.1311 -76.4747 84° East 398 458 18,600 2,100 Climbing Washington Center
04:09PM 39.1447 -76.3194 84° East 421 484 20,800 1,980 Climbing Washington Center
04:10PM 39.1581 -76.1617 80° East 433 498 22,600 1,080 Climbing Washington Center
04:11PM 39.1772 -76.0172 74° East 447 514 23,000 840 Climbing Washington Center
04:12PM 39.2111 -75.8622 47° Northeast 452 520 24,400 1,500 Climbing Washington Center
04:13PM 39.2925 -75.7497 43° Northeast 425 489 26,000 1,380 Climbing Washington Center
04:14PM 39.3844 -75.6372 46° Northeast 425 489 27,300 1,200 Climbing Washington Center
04:15PM 39.4697 -75.5244 45° Northeast 430 495 28,500 1,320 Climbing Washington Center
04:16PM 39.5592 -75.4086 46° Northeast 441 507 30,000 960 Climbing Washington Center
04:18PM 39.7003 -75.2175 49° Northeast 455 524 31,000 360 Climbing New York Center
04:19PM 39.7886 -75.0853 47° Northeast 460 529 31,000  Level New York Center
04:20PM 39.8742 -74.9661 47° Northeast 460 529 31,000  Level New York Center
04:21PM 39.9731 -74.8258 50° Northeast 471 542 31,000  Level New York Center
04:22PM 40.0567 -74.6978 50° Northeast 471 542 31,000  Level New York Center
04:23PM 40.1444 -74.5614 49° Northeast 471 542 31,000  Level New York Center
04:25PM 40.3172 -74.2961 50° Northeast 471 542 31,000  Level New York Center
04:26PM 40.4025 -74.1642 50° Northeast 471 542 31,000 -300 Level New York Center
04:27PM 40.4875 -74.0319 51° Northeast 471 542 30,400 -900 Descending New York Center
04:29PM 40.6544 -73.7642 50° Northeast 507 583 28,400 -1,200 Descending Boston Center
04:30PM 40.7417 -73.6261 50° Northeast 502 578 27,000 -1,920 Descending Boston Center
04:31PM 40.8242 -73.4961 48° Northeast 482 555 24,600 -1,500 Descending Boston Center
04:32PM 40.9044 -73.3764 49° Northeast 456 525 24,000 -300 Descending Boston Center
04:33PM 40.9867 -73.2511 50° Northeast 444 511 24,000 -420 Level Boston Center
04:34PM 41.0644 -73.1283 58° Northeast 438 504 23,200 -1,380 Descending Boston Center
04:35PM 41.1278 -72.9911 64° Northeast 438 504 21,300 -1,920 Descending Boston Center
04:36PM 41.1783 -72.8511 61° Northeast 428 493 19,400 -1,200 Descending Boston Center
04:37PM 41.2350 -72.7161 63° Northeast 416 479 19,000 -240 Descending Boston Center
04:38PM 41.2811 -72.5975 64° Northeast 405 466 19,000  Level Boston Center
04:39PM 41.3375 -72.4456 63° Northeast 405 466 19,000  Level Boston Center
04:40PM 41.3853 -72.3211 62° Northeast 410 472 19,000  Level Boston Center
04:41PM 41.4456 -72.1714 63° Northeast 410 472 19,000  Level Boston Center
04:42PM 41.4931 -72.0467 63° Northeast 410 472 19,000  Level Boston Center
04:43PM 41.5489 -71.8992 64° Northeast 405 466 19,000  Level Boston Center
04:44PM 41.5961 -71.7711 64° Northeast 405 466 19,000 -60 Level Boston Center
04:45PM 41.6492 -71.6261 62° Northeast 405 466 18,900 -1,140 Descending Boston Center
04:46PM 41.7025 -71.4919 61° Northeast 405 466 16,800 -1,980 Descending Boston Center
04:47PM 41.7514 -71.3717 58° Northeast 384 442 15,000 -1,920 Descending Boston Center
04:48PM 41.8025 -71.2622 59° Northeast 343 395 13,000 -1,860 Descending Boston Center
04:49PM 41.8511 -71.1553 61° Northeast 337 388 11,300 -960 Descending Boston Center
04:50PM 41.8939 -71.0511 61° Northeast 318 366 11,100 -180 Descending Boston Center
04:51PM 41.9361 -70.9469 62° Northeast 311 358 11,000 -60 Descending Boston Center
04:52PM 41.9725 -70.8539 60° Northeast 311 358 11,000 -480 Level Boston Center
04:53PM 42.0128 -70.7608 47° Northeast 305 351 10,100 -1,260 Descending Boston Center
04:54PM 42.0678 -70.6811 28° Northeast 292 336 8,500 -1,500 Descending Boston Center
04:55PM 42.1339 -70.6344 North 271 312 7,200 -1,200 Descending Boston Center
04:56PM 42.2167 -70.6167 360° North 256 295 6,000 -1,140 Descending Boston TRACON
04:57PM 42.2833 -70.6167 352° North 255 293 5,000 -540 Descending Boston TRACON
04:58PM 42.3442 -70.6283 357° North 248 285 5,000 -240 Level Boston Center
04:59PM 42.3986 -70.6322 339° North 224 258 4,600 -540 Descending Boston Center
05:00PM 42.4300 -70.6483 251° West 190 219 4,000 -480 Descending Boston Center
05:02PM 42.4000 -70.7667 251° West 162 186 3,300 -540 Descending Boston TRACON
05:03PM 42.3833 -70.8333 270° West 162 186 2,400 -900 Descending Boston TRACON
05:04PM 42.3833 -70.8833 251° West 161 185 1,500 -840 Descending Boston TRACON
05:05PM 42.3667 -70.9500 251° West 145 167 700 -840 Descending Boston TRACON